Sargodha Weather



Sargodha's Current Weather

Temprature 42.83o clear sky

clear sky

Rain: 0 %

Min Temprature42.83o
Max Temprature42.83o
Humidity22
Wind Speed0.69 m/h
Sun Rise05:19:00
Sun Set19:12:19
Current Time: 24-Jul-2021 15:31:46
Lat/Lon: 32.0836, 72.6711




Sargodha's Geo Location



Sargodha's Weather Forecast

Time Overall Temp Min Temp Max Temp Humidity Wind Speed Rain
24-Jul-2021 (Sat)
17:00:00 clear sky 42.620 42.510 42.620 22 0.64 m/h 0 %
20:00:00 clear sky 41.050 40.240 41.050 25 0.39 m/h 0 %
23:00:00 clear sky 37.970 37.970 37.970 33 3.25 m/h 0 %
25-Jul-2021 (Sun)
02:00:00 clear sky 36.200 36.200 36.200 40 2.93 m/h 0 %
05:00:00 clear sky 34.700 34.700 34.700 45 1.93 m/h 0 %
08:00:00 broken clouds 37.810 37.810 37.810 38 3.63 m/h 0 %
11:00:00 scattered clouds 41.870 41.870 41.870 27 2.54 m/h 0 %
14:00:00 clear sky 44.610 44.610 44.610 21 1.64 m/h 0 %
17:00:00 clear sky 44.600 44.600 44.600 20 1.66 m/h 0 %
20:00:00 few clouds 41.570 41.570 41.570 25 1.77 m/h 0 %
23:00:00 scattered clouds 39.390 39.390 39.390 32 4.69 m/h 0 %
26-Jul-2021 (Mon)
02:00:00 broken clouds 36.480 36.480 36.480 44 4.46 m/h 0 %
05:00:00 scattered clouds 34.730 34.730 34.730 52 4.61 m/h 0 %
08:00:00 scattered clouds 36.890 36.890 36.890 45 3.84 m/h 0 %
11:00:00 broken clouds 41.920 41.920 41.920 31 1.12 m/h 0 %
14:00:00 scattered clouds 45.080 45.080 45.080 23 0.94 m/h 0 %
17:00:00 scattered clouds 45.000 45.000 45.000 22 1.73 m/h 0 %
20:00:00 broken clouds 41.060 41.060 41.060 30 5.39 m/h 0 %
23:00:00 broken clouds 39.070 39.070 39.070 34 4.54 m/h 0 %
27-Jul-2021 (Tue)
02:00:00 broken clouds 37.200 37.200 37.200 39 3.76 m/h 0 %
05:00:00 broken clouds 34.980 34.980 34.980 47 3.22 m/h 0 %
08:00:00 scattered clouds 34.870 34.870 34.870 50 2.28 m/h 0 %
11:00:00 broken clouds 38.130 38.130 38.130 39 2.8 m/h 0 %
14:00:00 overcast clouds 40.440 40.440 40.440 34 4.2 m/h 0 %
17:00:00 broken clouds 40.490 40.490 40.490 33 4.02 m/h 0 %
20:00:00 scattered clouds 38.390 38.390 38.390 37 4.55 m/h 0 %
23:00:00 broken clouds 35.560 35.560 35.560 44 5.77 m/h 0 %
28-Jul-2021 (Wed)
02:00:00 broken clouds 33.040 33.040 33.040 52 5.19 m/h 0 %
05:00:00 light rain 31.800 31.800 31.800 57 3.13 m/h 42 %
08:00:00 overcast clouds 32.900 32.900 32.900 54 3.45 m/h 0 %
11:00:00 overcast clouds 35.780 35.780 35.780 45 4.15 m/h 0 %
14:00:00 overcast clouds 35.780 35.780 35.780 45 4.38 m/h 0 %
17:00:00 light rain 33.690 33.690 33.690 54 7.36 m/h 10 %
20:00:00 light rain 30.660 30.660 30.660 67 6.36 m/h 54 %
23:00:00 light rain 28.900 28.900 28.900 76 4.38 m/h 211 %
29-Jul-2021 (Thu)
02:00:00 light rain 28.520 28.520 28.520 78 2.77 m/h 147 %
05:00:00 light rain 27.800 27.800 27.800 81 3.36 m/h 268 %
08:00:00 light rain 28.650 28.650 28.650 78 3.62 m/h 30 %
11:00:00 broken clouds 33.720 33.720 33.720 56 2.92 m/h 0 %
14:00:00 light rain 36.040 36.040 36.040 48 1.29 m/h 33 %

Famous Cities (60)